This is the latest recevied weather packets stored in our database for station/object SP8C-13. If no packets are shown the sender has not sent any weather packets the latest 10 day(s).
| Time | Temp. | Humidity | Pressure | Rain* | Wind** | Luminosity | Snow |
|---|---|---|---|---|---|---|---|
| 1788655645 | 11.11° C | 92% | 1018.5 hPa | - | - | - | - |
| 1788646644 | 12.78° C | 80% | 1017.9 hPa | - | - | - | - |
| 1788644844 | 15° C | 65% | 1017.8 hPa | - | - | - | - |
| 1788643044 | 13.89° C | 71% | 1017 hPa | - | - | - | - |
| 1788639444 | 14.44° C | 66% | 1016.9 hPa | - | - | - | - |
| 1788635844 | 15.56° C | 62% | 1016.7 hPa | - | - | - | - |
| 1788632244 | 16.67° C | 55% | 1017 hPa | - | - | - | - |
| 1788630444 | 18.89° C | 53% | 1016.5 hPa | - | - | - | - |
| 1788628644 | 18.33° C | 51% | 1016.3 hPa | - | - | - | - |
| 1788621444 | 21.11° C | 44% | 1015.4 hPa | - | - | - | - |
| 1788617843 | 22.22° C | 43% | 1015.3 hPa | - | - | - | - |
| 1788616043 | 21.67° C | 46% | 1015.2 hPa | - | - | - | - |
| 1788614243 | 22.78° C | 46% | 1015 hPa | - | - | - | - |
| 1788610643 | 22.78° C | 47% | 1015.4 hPa | - | - | - | - |
| 1788608843 | 21.11° C | 48% | 1015.4 hPa | - | - | - | - |
| 1788607043 | 20.56° C | 53% | 1015.5 hPa | - | - | - | - |
| 1788605243 | 20.56° C | 58% | 1015.5 hPa | - | - | - | - |
| 1788603443 | 20° C | 58% | 1015.2 hPa | - | - | - | - |
| 1788601644 | 21.11° C | 55% | 1015 hPa | - | - | - | - |
| 1788599843 | 20.56° C | 61% | 1015.1 hPa | - | - | - | - |
| 1788598043 | 20° C | 65% | 1015 hPa | - | - | - | - |
| 1788596243 | 18.33° C | 71% | 1014.8 hPa | - | - | - | - |
| 1788594443 | 18.89° C | 70% | 1014.7 hPa | - | - | - | - |
| 1788592643 | 17.78° C | 76% | 1014.1 hPa | - | - | - | - |
| 1788590843 | 16.11° C | 82% | 1014 hPa | - | - | - | - |
* Rain since midnight (hover to see other rain measurements)
** Current wind speed in m/s (hover to see current wind gust speed)